• Join FlightAware (Why Join?)
  • Login
  • US Flag 
03:57PM EDT


 

Airport Tracker/Info


-or-


 

Live Flight TrackerFlight Track Log ✈ BOE501 ✈ 14-Feb-2013 ✈ KPAE - KPAE

Flight Track Log - Related Links

Times and Time Zones

All times are in EST time to prevent confusion due to time zone crossing. See the BOE501 flight status page for this flight to view local times or setup timezone preferences in your user account.

Time Position Orientation Groundspeed Altitude Reporting Facility
EST Latitude Longitude Course Direction KTS MPH feet Rate Location/Type
05:55PM 47.8892 -122.2861 176° South 154 177 1,200  Level Seattle Center
05:56PM 47.8622 -122.2831 176° South 139 160 2,400 1,200 Climbing Seattle Center
05:57PM 47.8133 -122.2953 190° South 190 219 3,300 2,160 Climbing Seattle Center
05:58PM 47.8069 -122.3864 264° West 257 296 6,900 3,780 Climbing Seattle Center
05:59PM 47.8292 -122.4833 289° West 254 292 11,100 3,420 Climbing Seattle Center
06:00PM 47.8553 -122.5953 289° West 290 334 13,900 2,400 Climbing Seattle Center
06:01PM 47.8828 -122.7175 289° West 315 362 16,100 2,040 Climbing Seattle Center
06:02PM 47.9183 -122.8708 289° West 333 383 18,100 1,860 Climbing Seattle Center
06:03PM 47.9481 -123.0031 289° West 339 390 19,900 900 Climbing Seattle Center
06:04PM 47.9781 -123.1378 288° West 345 397 20,000  Climbing Seattle Center
06:05PM 48.0072 -123.2703 288° West 341 392 20,000  Level Seattle Center
06:06PM 48.0386 -123.4069 289° West 350 403 20,000 -120 Level Seattle Center
06:07PM 48.0653 -123.5561 285° West 347 399 19,800 -1,140 Descending Seattle Center
06:08PM 47.9919 -123.6525 221° Southwest 365 420 17,700 -1,560 Descending Seattle Center
06:09PM 47.9117 -123.5953 154° Southeast 386 444 16,700 -1,560 Descending Seattle Center
06:10PM 47.9292 -123.4322 81° East 342 394 14,600 -1,980 Descending Seattle Center
06:11PM 47.9800 -123.3153 57° Northeast 337 388 12,700 -2,220 Descending Seattle Center
06:12PM 48.0314 -123.1944 58° Northeast 346 398 10,200 -1,680 Descending Seattle Center
06:13PM 48.0597 -123.1275 58° Northeast 341 392 10,100 -240 Descending Seattle Center
06:13PM 48.0794 -123.0814 57° Northeast 329 379 10,000 -660 Descending Seattle Center
06:14PM 48.1142 -123.0006 57° Northeast 294 338 9,300 -900 Descending Seattle Center
06:14PM 48.1222 -122.9825 56° Northeast 291 335 9,100 -960 Descending Seattle Center
06:15PM 48.1397 -122.8728 77° East 294 338 8,200 -1,020 Descending Seattle Center
06:16PM 48.1433 -122.7444 88° East 290 334 7,200 -960 Descending Seattle Center
06:17PM 48.1447 -122.6244 89° East 285 328 6,300 -960 Descending Seattle Center
06:18PM 48.1469 -122.5169 88° East 283 326 5,400 -780 Descending Seattle Center
06:19PM 48.1497 -122.4028 88° East 270 311 4,800 -660 Descending Seattle Center
06:20PM 48.1356 -122.3108 103° East 224 258 4,100 -660 Descending Seattle Center
06:21PM 48.0836 -122.2903 165° South 186 214 3,500 -600 Descending Seattle Center
06:22PM 48.0303 -122.2900 180° South 159 183 2,900 -720 Descending Seattle Center
06:23PM 47.9900 -122.2894 179° South 142 163 2,000 -840 Descending Seattle Center
06:24PM 47.9500 -122.2886 179° South 144 166 1,200 -600 Descending Seattle Center
06:26PM 47.9050 -122.2842 176° South 145 167 800 -360 Descending Seattle Center